Fleming, Colorado
Current Conditions -  °F | °C
As of 1:30 AM on Saturday 27 Dec 2014 (Local Time) from KSTK Reporting Station
Clear Clear  
Wind Chill: -6°   Ceiling: Unl
Heat Index:   Visibility: 10mi
Dew Point:   Wind: 10mph
Humidity: 85%   Direction: 260°W
Pressure: 30.13"   Gusts: NA
Location:  40.68°N, 102.84°W
Report Text: KSTK 270830Z AUTO 26009KT 10SM CLR M13/M15 A3013 RMK AO2
Loading
Personal Weather Stations






























Interactive Weather Map New forecast layout! Learn more

10-Day Weather Forecast

Advertisements
Track Severe Weather on mobile